sensor_id;sensor_type;location;lat;lon;timestamp;pressure;altitude;pressure_sealevel;temperature;humidity
13486;BME280;6815;59.336;17.998;2023-01-19T00:02:22;76797.38;;;-145.37;84.98
13486;BME280;6815;59.336;17.998;2023-01-19T00:04:47;76803.41;;;-145.37;85.17
13486;BME280;6815;59.336;17.998;2023-01-19T00:07:14;76803.41;;;-145.37;85.09
13486;BME280;6815;59.336;17.998;2023-01-19T00:09:39;76809.44;;;-145.37;85.10
13486;BME280;6815;59.336;17.998;2023-01-19T00:12:05;76803.41;;;-145.37;85.15
13486;BME280;6815;59.336;17.998;2023-01-19T00:14:30;76827.53;;;-145.37;86.02
13486;BME280;6815;59.336;17.998;2023-01-19T00:16:56;76829.56;;;-145.37;86.02
13486;BME280;6815;59.336;17.998;2023-01-19T00:19:22;76831.56;;;-145.37;85.85
13486;BME280;6815;59.336;17.998;2023-01-19T00:21:47;76817.50;;;-145.37;85.48
13486;BME280;6815;59.336;17.998;2023-01-19T00:24:13;76819.50;;;-145.37;85.24
13486;BME280;6815;59.336;17.998;2023-01-19T00:26:39;76845.63;;;-145.37;85.77
13486;BME280;6815;59.336;17.998;2023-01-19T00:29:07;76853.69;;;-145.37;86.86
13486;BME280;6815;59.336;17.998;2023-01-19T00:31:32;76835.59;;;-145.37;86.59
13486;BME280;6815;59.336;17.998;2023-01-19T00:34:00;76851.66;;;-145.37;87.00
13486;BME280;6815;59.336;17.998;2023-01-19T00:36:26;76865.75;;;-145.37;87.23
13486;BME280;6815;59.336;17.998;2023-01-19T00:38:51;76843.63;;;-145.37;87.23
13486;BME280;6815;59.336;17.998;2023-01-19T00:41:17;76831.56;;;-145.37;86.73
13486;BME280;6815;59.336;17.998;2023-01-19T00:43:42;76833.56;;;-145.37;86.64
13486;BME280;6815;59.336;17.998;2023-01-19T00:46:08;76849.66;;;-145.37;86.62
13486;BME280;6815;59.336;17.998;2023-01-19T00:48:33;76869.78;;;-145.37;87.55
13486;BME280;6815;59.336;17.998;2023-01-19T00:50:58;76855.69;;;-145.37;87.16
13486;BME280;6815;59.336;17.998;2023-01-19T00:53:24;76865.75;;;-145.37;87.51
13486;BME280;6815;59.336;17.998;2023-01-19T00:55:50;76829.56;;;-145.37;86.52
13486;BME280;6815;59.336;17.998;2023-01-19T00:58:15;76815.47;;;-145.37;86.11
13486;BME280;6815;59.336;17.998;2023-01-19T01:00:41;76813.47;;;-145.37;85.71
13486;BME280;6815;59.336;17.998;2023-01-19T01:03:06;76831.56;;;-145.37;85.83
13486;BME280;6815;59.336;17.998;2023-01-19T01:05:32;76835.59;;;-145.37;86.08
13486;BME280;6815;59.336;17.998;2023-01-19T01:07:58;76829.56;;;-145.37;85.83
13486;BME280;6815;59.336;17.998;2023-01-19T01:10:26;76853.69;;;-145.37;86.87
13486;BME280;6815;59.336;17.998;2023-01-19T01:12:51;76867.75;;;-145.37;86.76
13486;BME280;6815;59.336;17.998;2023-01-19T01:15:18;76853.69;;;-145.37;86.79
13486;BME280;6815;59.336;17.998;2023-01-19T01:17:43;76857.69;;;-145.37;86.78
13486;BME280;6815;59.336;17.998;2023-01-19T01:20:17;76863.72;;;-145.37;86.79
13486;BME280;6815;59.336;17.998;2023-01-19T01:22:48;76849.66;;;-145.37;86.59
13486;BME280;6815;59.336;17.998;2023-01-19T01:25:15;76875.81;;;-145.37;87.08
13486;BME280;6815;59.336;17.998;2023-01-19T01:27:42;76879.81;;;-145.37;87.41
13486;BME280;6815;59.336;17.998;2023-01-19T01:30:09;76873.78;;;-145.37;87.28
13486;BME280;6815;59.336;17.998;2023-01-19T01:32:35;76865.75;;;-145.37;87.38
13486;BME280;6815;59.336;17.998;2023-01-19T01:35:01;76851.66;;;-145.37;86.86
13486;BME280;6815;59.336;17.998;2023-01-19T01:37:26;76861.72;;;-145.37;87.04
13486;BME280;6815;59.336;17.998;2023-01-19T01:39:51;76861.72;;;-145.37;86.66
13486;BME280;6815;59.336;17.998;2023-01-19T01:42:19;76879.81;;;-145.37;87.29
13486;BME280;6815;59.336;17.998;2023-01-19T01:44:56;76885.84;;;-145.37;87.76
13486;BME280;6815;59.336;17.998;2023-01-19T01:47:43;76883.84;;;-145.37;87.85
13486;BME280;6815;59.336;17.998;2023-01-19T01:50:22;76873.78;;;-145.37;87.77
13486;BME280;6815;59.336;17.998;2023-01-19T01:52:56;76877.81;;;-145.37;87.89
13486;BME280;6815;59.336;17.998;2023-01-19T01:55:24;76871.78;;;-145.37;87.86
13486;BME280;6815;59.336;17.998;2023-01-19T01:57:52;76863.72;;;-145.37;87.42
13486;BME280;6815;59.336;17.998;2023-01-19T02:00:18;76887.88;;;-145.37;87.92
13486;BME280;6815;59.336;17.998;2023-01-19T02:02:44;76879.81;;;-145.37;88.24
13486;BME280;6815;59.336;17.998;2023-01-19T02:08:03;76871.78;;;-145.37;88.08
13486;BME280;6815;59.336;17.998;2023-01-19T02:10:50;76867.75;;;-145.37;88.17
13486;BME280;6815;59.336;17.998;2023-01-19T02:13:36;76865.75;;;-145.37;88.35
13486;BME280;6815;59.336;17.998;2023-01-19T02:16:08;76916.00;;;-145.37;89.11
13486;BME280;6815;59.336;17.998;2023-01-19T02:18:35;76889.88;;;-145.37;89.31
13486;BME280;6815;59.336;17.998;2023-01-19T02:21:10;76887.88;;;-145.37;89.18
13486;BME280;6815;59.336;17.998;2023-01-19T02:23:40;76881.84;;;-145.37;88.70
13486;BME280;6815;59.336;17.998;2023-01-19T02:26:08;76895.91;;;-145.37;89.08
13486;BME280;6815;59.336;17.998;2023-01-19T02:28:38;76887.88;;;-145.37;89.01
13486;BME280;6815;59.336;17.998;2023-01-19T02:31:05;76907.97;;;-145.37;88.96
13486;BME280;6815;59.336;17.998;2023-01-19T02:33:31;76889.88;;;-145.37;89.12
13486;BME280;6815;59.336;17.998;2023-01-19T02:35:56;76889.88;;;-145.37;88.78
13486;BME280;6815;59.336;17.998;2023-01-19T02:38:24;76889.88;;;-145.37;89.12
13486;BME280;6815;59.336;17.998;2023-01-19T02:40:54;76869.78;;;-145.37;88.42
13486;BME280;6815;59.336;17.998;2023-01-19T02:43:21;76875.81;;;-145.37;88.64
13486;BME280;6815;59.336;17.998;2023-01-19T02:45:47;76873.78;;;-145.37;88.65
13486;BME280;6815;59.336;17.998;2023-01-19T02:48:15;76889.88;;;-145.37;89.20
13486;BME280;6815;59.336;17.998;2023-01-19T02:50:44;76889.88;;;-145.37;89.51
13486;BME280;6815;59.336;17.998;2023-01-19T02:55:52;76899.94;;;-145.37;89.75
13486;BME280;6815;59.336;17.998;2023-01-19T03:03:55;76907.97;;;-145.37;90.14
13486;BME280;6815;59.336;17.998;2023-01-19T03:06:46;76907.97;;;-145.37;90.09
13486;BME280;6815;59.336;17.998;2023-01-19T03:12:00;76912.00;;;-145.37;89.92
13486;BME280;6815;59.336;17.998;2023-01-19T03:14:29;76916.00;;;-145.37;89.91
13486;BME280;6815;59.336;17.998;2023-01-19T03:17:00;76907.97;;;-145.37;89.91
13486;BME280;6815;59.336;17.998;2023-01-19T03:19:40;76899.94;;;-145.37;90.06
13486;BME280;6815;59.336;17.998;2023-01-19T03:22:11;76903.94;;;-145.37;89.63
13486;BME280;6815;59.336;17.998;2023-01-19T03:24:40;76897.91;;;-145.37;89.44
13486;BME280;6815;59.336;17.998;2023-01-19T03:27:28;76916.00;;;-145.37;89.97
13486;BME280;6815;59.336;17.998;2023-01-19T03:29:59;76903.94;;;-145.37;89.64
13486;BME280;6815;59.336;17.998;2023-01-19T03:32:31;76916.00;;;-145.37;89.31
13486;BME280;6815;59.336;17.998;2023-01-19T03:35:02;76895.91;;;-145.37;89.17
13486;BME280;6815;59.336;17.998;2023-01-19T03:37:30;76899.94;;;-145.37;89.04
13486;BME280;6815;59.336;17.998;2023-01-19T03:39:58;76912.00;;;-145.37;89.47
13486;BME280;6815;59.336;17.998;2023-01-19T03:42:24;76905.97;;;-145.37;89.48
13486;BME280;6815;59.336;17.998;2023-01-19T03:44:52;76926.06;;;-145.37;90.00
13486;BME280;6815;59.336;17.998;2023-01-19T03:47:20;76934.13;;;-145.37;90.46
13486;BME280;6815;59.336;17.998;2023-01-19T03:49:46;76954.22;;;-145.37;90.50
13486;BME280;6815;59.336;17.998;2023-01-19T03:52:13;76940.16;;;-145.37;90.82
13486;BME280;6815;59.336;17.998;2023-01-19T03:54:39;76954.22;;;-145.37;90.98
13486;BME280;6815;59.336;17.998;2023-01-19T03:57:05;76940.16;;;-145.37;90.99
13486;BME280;6815;59.336;17.998;2023-01-19T03:59:31;76946.19;;;-145.37;91.04
13486;BME280;6815;59.336;17.998;2023-01-19T04:01:56;76944.16;;;-145.37;90.93
13486;BME280;6815;59.336;17.998;2023-01-19T04:04:21;76966.28;;;-145.37;91.01
13486;BME280;6815;59.336;17.998;2023-01-19T04:06:47;76968.28;;;-145.37;91.23
13486;BME280;6815;59.336;17.998;2023-01-19T04:09:12;76952.22;;;-145.37;90.55
13486;BME280;6815;59.336;17.998;2023-01-19T04:11:38;76932.09;;;-145.37;90.18
13486;BME280;6815;59.336;17.998;2023-01-19T04:14:03;76930.09;;;-145.37;90.07
13486;BME280;6815;59.336;17.998;2023-01-19T04:16:28;76928.06;;;-145.37;89.89
13486;BME280;6815;59.336;17.998;2023-01-19T04:18:54;76930.09;;;-145.37;89.62
13486;BME280;6815;59.336;17.998;2023-01-19T04:21:20;76932.09;;;-145.37;89.65
13486;BME280;6815;59.336;17.998;2023-01-19T04:23:46;76940.16;;;-145.37;89.83
13486;BME280;6815;59.336;17.998;2023-01-19T04:26:11;76936.13;;;-145.37;89.90
13486;BME280;6815;59.336;17.998;2023-01-19T04:28:37;76952.22;;;-145.37;90.26
13486;BME280;6815;59.336;17.998;2023-01-19T04:31:04;76942.16;;;-145.37;89.99
13486;BME280;6815;59.336;17.998;2023-01-19T04:33:30;76936.13;;;-145.37;89.58
13486;BME280;6815;59.336;17.998;2023-01-19T04:35:56;76970.31;;;-145.37;90.47
13486;BME280;6815;59.336;17.998;2023-01-19T04:38:22;76964.28;;;-145.37;90.82
13486;BME280;6815;59.336;17.998;2023-01-19T04:40:49;76964.28;;;-145.37;90.78
13486;BME280;6815;59.336;17.998;2023-01-19T04:43:15;76962.25;;;-145.37;90.55
13486;BME280;6815;59.336;17.998;2023-01-19T04:45:41;76950.19;;;-145.37;90.00
13486;BME280;6815;59.336;17.998;2023-01-19T04:48:09;76976.34;;;-145.37;90.44
13486;BME280;6815;59.336;17.998;2023-01-19T04:50:34;76962.25;;;-145.37;90.43
13486;BME280;6815;59.336;17.998;2023-01-19T04:53:00;76976.34;;;-145.37;89.93
13486;BME280;6815;59.336;17.998;2023-01-19T04:55:26;76976.34;;;-145.37;90.48
13486;BME280;6815;59.336;17.998;2023-01-19T04:57:52;76990.41;;;-145.37;90.94
13486;BME280;6815;59.336;17.998;2023-01-19T05:00:18;76978.34;;;-145.37;90.78
13486;BME280;6815;59.336;17.998;2023-01-19T05:02:45;76984.38;;;-145.37;90.76
13486;BME280;6815;59.336;17.998;2023-01-19T05:05:11;76982.38;;;-145.37;90.67
13486;BME280;6815;59.336;17.998;2023-01-19T05:07:37;76978.34;;;-145.37;90.58
13486;BME280;6815;59.336;17.998;2023-01-19T05:10:03;76980.34;;;-145.37;90.81
13486;BME280;6815;59.336;17.998;2023-01-19T05:12:29;76966.28;;;-145.37;90.51
13486;BME280;6815;59.336;17.998;2023-01-19T05:14:55;77002.47;;;-145.37;90.92
13486;BME280;6815;59.336;17.998;2023-01-19T05:17:20;76984.38;;;-145.37;90.75
13486;BME280;6815;59.336;17.998;2023-01-19T05:19:45;76986.38;;;-145.37;91.29
13486;BME280;6815;59.336;17.998;2023-01-19T05:22:13;77002.47;;;-145.37;91.32
13486;BME280;6815;59.336;17.998;2023-01-19T05:24:38;76996.44;;;-145.37;91.40
13486;BME280;6815;59.336;17.998;2023-01-19T05:27:04;76988.41;;;-145.37;91.04
13486;BME280;6815;59.336;17.998;2023-01-19T05:29:29;76982.38;;;-145.37;90.65
13486;BME280;6815;59.336;17.998;2023-01-19T05:31:55;77000.47;;;-145.37;90.55
13486;BME280;6815;59.336;17.998;2023-01-19T05:34:20;76998.47;;;-145.37;90.96
13486;BME280;6815;59.336;17.998;2023-01-19T05:36:46;77016.56;;;-145.37;91.44
13486;BME280;6815;59.336;17.998;2023-01-19T05:39:11;77000.47;;;-145.37;91.30
13486;BME280;6815;59.336;17.998;2023-01-19T05:41:37;76988.41;;;-145.37;90.59
13486;BME280;6815;59.336;17.998;2023-01-19T05:44:02;76980.34;;;-145.37;90.26
13486;BME280;6815;59.336;17.998;2023-01-19T05:46:28;76978.34;;;-145.37;90.23
13486;BME280;6815;59.336;17.998;2023-01-19T05:48:54;76992.41;;;-145.37;90.48
13486;BME280;6815;59.336;17.998;2023-01-19T05:51:19;76978.34;;;-145.37;90.32
13486;BME280;6815;59.336;17.998;2023-01-19T05:53:44;77020.56;;;-145.37;90.88
13486;BME280;6815;59.336;17.998;2023-01-19T05:56:10;77006.50;;;-145.37;91.15
13486;BME280;6815;59.336;17.998;2023-01-19T05:58:36;76998.47;;;-145.37;90.73
13486;BME280;6815;59.336;17.998;2023-01-19T06:01:08;77004.50;;;-145.37;90.45
13486;BME280;6815;59.336;17.998;2023-01-19T06:03:35;76988.41;;;-145.37;89.90
13486;BME280;6815;59.336;17.998;2023-01-19T06:06:02;77016.56;;;-145.37;90.44
13486;BME280;6815;59.336;17.998;2023-01-19T06:08:28;77024.59;;;-145.37;90.81
13486;BME280;6815;59.336;17.998;2023-01-19T06:10:53;77002.47;;;-145.37;90.33
13486;BME280;6815;59.336;17.998;2023-01-19T06:13:19;76986.38;;;-145.37;89.26
13486;BME280;6815;59.336;17.998;2023-01-19T06:15:44;77034.66;;;-145.37;90.42
13486;BME280;6815;59.336;17.998;2023-01-19T06:18:10;77038.66;;;-145.37;90.82
13486;BME280;6815;59.336;17.998;2023-01-19T06:20:36;77022.59;;;-145.37;90.54
13486;BME280;6815;59.336;17.998;2023-01-19T06:23:02;77040.69;;;-145.37;91.05
13486;BME280;6815;59.336;17.998;2023-01-19T06:25:27;77028.63;;;-145.37;90.50
13486;BME280;6815;59.336;17.998;2023-01-19T06:27:53;77022.59;;;-145.37;90.00
13486;BME280;6815;59.336;17.998;2023-01-19T06:30:19;77018.56;;;-145.37;89.73
13486;BME280;6815;59.336;17.998;2023-01-19T06:32:44;77024.59;;;-145.37;89.80
13486;BME280;6815;59.336;17.998;2023-01-19T06:35:10;77026.59;;;-145.37;89.70
13486;BME280;6815;59.336;17.998;2023-01-19T06:37:36;77018.56;;;-145.37;89.27
13486;BME280;6815;59.336;17.998;2023-01-19T06:40:01;77036.66;;;-145.37;89.63
13486;BME280;6815;59.336;17.998;2023-01-19T06:42:27;77054.75;;;-145.37;89.88
13486;BME280;6815;59.336;17.998;2023-01-19T06:44:52;77040.69;;;-145.37;89.59
13486;BME280;6815;59.336;17.998;2023-01-19T06:47:18;77050.75;;;-145.37;89.72
13486;BME280;6815;59.336;17.998;2023-01-19T06:49:43;77062.81;;;-145.37;89.95
13486;BME280;6815;59.336;17.998;2023-01-19T06:52:10;77062.81;;;-145.37;90.33
13486;BME280;6815;59.336;17.998;2023-01-19T06:54:36;77070.84;;;-145.37;90.06
13486;BME280;6815;59.336;17.998;2023-01-19T06:57:02;77076.88;;;-145.37;90.29
13486;BME280;6815;59.336;17.998;2023-01-19T06:59:28;77066.81;;;-145.37;90.28
13486;BME280;6815;59.336;17.998;2023-01-19T07:01:53;77066.81;;;-145.37;90.22
13486;BME280;6815;59.336;17.998;2023-01-19T07:04:20;77074.88;;;-145.37;90.32
13486;BME280;6815;59.336;17.998;2023-01-19T07:06:46;77090.97;;;-145.37;90.50
13486;BME280;6815;59.336;17.998;2023-01-19T07:09:11;77080.91;;;-145.37;90.59
13486;BME280;6815;59.336;17.998;2023-01-19T07:11:38;77088.94;;;-145.37;90.45
13486;BME280;6815;59.336;17.998;2023-01-19T07:14:03;77080.91;;;-145.37;90.33
13486;BME280;6815;59.336;17.998;2023-01-19T07:16:29;77086.94;;;-145.37;90.16
13486;BME280;6815;59.336;17.998;2023-01-19T07:18:55;77094.97;;;-145.37;90.19
13486;BME280;6815;59.336;17.998;2023-01-19T07:21:21;77088.94;;;-145.37;89.95
13486;BME280;6815;59.336;17.998;2023-01-19T07:23:48;77094.97;;;-145.37;89.74
13486;BME280;6815;59.336;17.998;2023-01-19T07:26:14;77099.00;;;-145.37;89.96
13486;BME280;6815;59.336;17.998;2023-01-19T07:28:42;77103.03;;;-145.37;90.20
13486;BME280;6815;59.336;17.998;2023-01-19T07:31:08;77101.00;;;-145.37;89.86
13486;BME280;6815;59.336;17.998;2023-01-19T07:33:34;77117.09;;;-145.37;90.17
13486;BME280;6815;59.336;17.998;2023-01-19T07:36:00;77121.13;;;-145.37;90.08
13486;BME280;6815;59.336;17.998;2023-01-19T07:38:25;77127.16;;;-145.37;90.00
13486;BME280;6815;59.336;17.998;2023-01-19T07:40:51;77119.09;;;-145.37;89.74
13486;BME280;6815;59.336;17.998;2023-01-19T07:43:16;77127.16;;;-145.37;90.14
13486;BME280;6815;59.336;17.998;2023-01-19T07:45:41;77131.16;;;-145.37;90.35
13486;BME280;6815;59.336;17.998;2023-01-19T07:48:07;77129.16;;;-145.37;90.15
13486;BME280;6815;59.336;17.998;2023-01-19T07:50:33;77155.31;;;-145.37;90.05
13486;BME280;6815;59.336;17.998;2023-01-19T07:53:07;77149.28;;;-145.37;90.19
13486;BME280;6815;59.336;17.998;2023-01-19T07:55:32;77155.31;;;-145.37;90.36
13486;BME280;6815;59.336;17.998;2023-01-19T07:57:58;77177.41;;;-145.37;90.68
13486;BME280;6815;59.336;17.998;2023-01-19T08:00:24;77181.44;;;-145.37;90.98
13486;BME280;6815;59.336;17.998;2023-01-19T08:02:50;77163.34;;;-145.37;91.06
13486;BME280;6815;59.336;17.998;2023-01-19T08:05:17;77149.28;;;-145.37;90.47
13486;BME280;6815;59.336;17.998;2023-01-19T08:07:45;77185.47;;;-145.37;91.33
13486;BME280;6815;59.336;17.998;2023-01-19T08:10:12;77153.28;;;-145.37;90.72
13486;BME280;6815;59.336;17.998;2023-01-19T08:12:38;77153.28;;;-145.37;90.73
13486;BME280;6815;59.336;17.998;2023-01-19T08:15:06;77181.44;;;-145.37;90.75
13486;BME280;6815;59.336;17.998;2023-01-19T08:17:32;77179.44;;;-145.37;91.30
13486;BME280;6815;59.336;17.998;2023-01-19T08:19:58;77169.38;;;-145.37;91.00
13486;BME280;6815;59.336;17.998;2023-01-19T08:22:23;77189.50;;;-145.37;91.04
13486;BME280;6815;59.336;17.998;2023-01-19T08:24:49;77179.44;;;-145.37;91.08
13486;BME280;6815;59.336;17.998;2023-01-19T08:27:15;77165.34;;;-145.37;90.53
13486;BME280;6815;59.336;17.998;2023-01-19T08:29:41;77163.34;;;-145.37;90.27
13486;BME280;6815;59.336;17.998;2023-01-19T08:32:06;77173.41;;;-145.37;90.63
13486;BME280;6815;59.336;17.998;2023-01-19T08:34:32;77177.41;;;-145.37;90.84
13486;BME280;6815;59.336;17.998;2023-01-19T08:36:57;77169.38;;;-145.37;91.04
13486;BME280;6815;59.336;17.998;2023-01-19T08:39:23;77163.34;;;-145.37;90.43
13486;BME280;6815;59.336;17.998;2023-01-19T08:41:49;77197.53;;;-145.37;91.32
13486;BME280;6815;59.336;17.998;2023-01-19T08:44:15;77171.38;;;-145.37;90.95
13486;BME280;6815;59.336;17.998;2023-01-19T08:46:41;77157.31;;;-145.37;90.45
13486;BME280;6815;59.336;17.998;2023-01-19T08:49:06;77153.28;;;-145.37;89.87
13486;BME280;6815;59.336;17.998;2023-01-19T08:51:33;77149.28;;;-145.37;90.13
13486;BME280;6815;59.336;17.998;2023-01-19T08:53:59;77165.34;;;-145.37;90.35
13486;BME280;6815;59.336;17.998;2023-01-19T08:56:25;77161.34;;;-145.37;89.86
13486;BME280;6815;59.336;17.998;2023-01-19T08:58:50;77189.50;;;-145.37;90.10
13486;BME280;6815;59.336;17.998;2023-01-19T09:01:16;77183.47;;;-145.37;90.53
13486;BME280;6815;59.336;17.998;2023-01-19T09:03:42;77165.34;;;-145.37;90.28
13486;BME280;6815;59.336;17.998;2023-01-19T09:06:10;77161.34;;;-145.37;90.47
13486;BME280;6815;59.336;17.998;2023-01-19T09:08:36;77179.44;;;-145.37;90.31
13486;BME280;6815;59.336;17.998;2023-01-19T09:11:01;77163.34;;;-145.37;90.24
13486;BME280;6815;59.336;17.998;2023-01-19T09:13:27;77159.31;;;-145.37;89.83
13486;BME280;6815;59.336;17.998;2023-01-19T09:15:52;77179.44;;;-145.37;90.39
13486;BME280;6815;59.336;17.998;2023-01-19T09:18:20;77169.38;;;-145.37;90.30
13486;BME280;6815;59.336;17.998;2023-01-19T09:20:47;77169.38;;;-145.37;90.11
13486;BME280;6815;59.336;17.998;2023-01-19T09:23:16;77185.47;;;-145.37;90.14
13486;BME280;6815;59.336;17.998;2023-01-19T09:25:43;77175.41;;;-145.37;90.25
13486;BME280;6815;59.336;17.998;2023-01-19T09:28:11;77197.53;;;-145.37;90.35
13486;BME280;6815;59.336;17.998;2023-01-19T09:30:39;77229.72;;;-145.37;91.35
13486;BME280;6815;59.336;17.998;2023-01-19T09:33:09;77209.59;;;-145.37;91.40
13486;BME280;6815;59.336;17.998;2023-01-19T09:35:36;77195.53;;;-145.37;90.30
13486;BME280;6815;59.336;17.998;2023-01-19T09:38:02;77193.50;;;-145.37;90.38
13486;BME280;6815;59.336;17.998;2023-01-19T09:40:28;77199.53;;;-145.37;90.27
13486;BME280;6815;59.336;17.998;2023-01-19T09:42:56;77187.47;;;-145.37;90.17
13486;BME280;6815;59.336;17.998;2023-01-19T09:45:33;77201.56;;;-145.37;90.83
13486;BME280;6815;59.336;17.998;2023-01-19T09:48:04;77201.56;;;-145.37;90.56
13486;BME280;6815;59.336;17.998;2023-01-19T09:50:38;77213.63;;;-145.37;90.36
13486;BME280;6815;59.336;17.998;2023-01-19T09:55:58;77247.81;;;-145.37;90.67
13486;BME280;6815;59.336;17.998;2023-01-19T09:58:23;77247.81;;;-145.37;90.89
13486;BME280;6815;59.336;17.998;2023-01-19T10:01:02;77219.66;;;-145.37;90.43
13486;BME280;6815;59.336;17.998;2023-01-19T10:03:33;77235.75;;;-145.37;90.33
13486;BME280;6815;59.336;17.998;2023-01-19T10:06:03;77251.81;;;-145.37;91.12
13486;BME280;6815;59.336;17.998;2023-01-19T10:11:36;77241.78;;;-145.37;91.10
13486;BME280;6815;59.336;17.998;2023-01-19T10:14:15;77235.75;;;-145.37;90.76
13486;BME280;6815;59.336;17.998;2023-01-19T10:16:52;77263.91;;;-145.37;91.38
13486;BME280;6815;59.336;17.998;2023-01-19T10:19:32;77275.97;;;-145.37;91.65
13486;BME280;6815;59.336;17.998;2023-01-19T10:22:26;77257.84;;;-145.37;91.28
13486;BME280;6815;59.336;17.998;2023-01-19T10:24:58;77273.94;;;-145.37;91.17
13486;BME280;6815;59.336;17.998;2023-01-19T10:27:32;77275.97;;;-145.37;91.61
13486;BME280;6815;59.336;17.998;2023-01-19T10:29:59;77273.94;;;-145.37;91.73
13486;BME280;6815;59.336;17.998;2023-01-19T10:32:31;77253.84;;;-145.37;91.23
13486;BME280;6815;59.336;17.998;2023-01-19T10:34:58;77259.88;;;-145.37;90.67
13486;BME280;6815;59.336;17.998;2023-01-19T10:37:36;77253.84;;;-145.37;91.08
13486;BME280;6815;59.336;17.998;2023-01-19T10:40:21;77259.88;;;-145.37;90.95
13486;BME280;6815;59.336;17.998;2023-01-19T10:42:50;77247.81;;;-145.37;90.59
13486;BME280;6815;59.336;17.998;2023-01-19T10:45:20;77249.81;;;-145.37;90.38
13486;BME280;6815;59.336;17.998;2023-01-19T10:47:47;77275.97;;;-145.37;90.96
13486;BME280;6815;59.336;17.998;2023-01-19T10:50:33;77298.09;;;-145.37;91.67
13486;BME280;6815;59.336;17.998;2023-01-19T10:53:01;77273.94;;;-145.37;91.09
13486;BME280;6815;59.336;17.998;2023-01-19T10:55:37;77290.03;;;-145.37;91.52
13486;BME280;6815;59.336;17.998;2023-01-19T10:58:04;77288.03;;;-145.37;91.25
13486;BME280;6815;59.336;17.998;2023-01-19T11:03:03;77284.00;;;-145.37;91.47
13486;BME280;6815;59.336;17.998;2023-01-19T11:05:31;77227.69;;;-145.37;89.56
13486;BME280;6815;59.336;17.998;2023-01-19T11:07:57;77223.69;;;-145.37;88.59
13486;BME280;6815;59.336;17.998;2023-01-19T11:10:26;77203.56;;;-145.37;87.91
13486;BME280;6815;59.336;17.998;2023-01-19T11:12:59;77195.53;;;-145.37;87.25
13486;BME280;6815;59.336;17.998;2023-01-19T11:15:52;77197.53;;;-145.37;87.05
13486;BME280;6815;59.336;17.998;2023-01-19T11:18:28;77201.56;;;-145.37;86.71
13486;BME280;6815;59.336;17.998;2023-01-19T11:21:05;77191.50;;;-145.37;86.13
13486;BME280;6815;59.336;17.998;2023-01-19T11:23:38;77189.50;;;-145.37;85.43
13486;BME280;6815;59.336;17.998;2023-01-19T11:26:23;77185.47;;;-145.37;85.60
13486;BME280;6815;59.336;17.998;2023-01-19T11:28:50;77207.59;;;-145.37;86.03
13486;BME280;6815;59.336;17.998;2023-01-19T11:33:55;77209.59;;;-145.37;86.14
13486;BME280;6815;59.336;17.998;2023-01-19T11:36:35;77197.53;;;-145.37;85.55
13486;BME280;6815;59.336;17.998;2023-01-19T11:41:38;77199.53;;;-145.37;85.57
13486;BME280;6815;59.336;17.998;2023-01-19T11:46:32;77197.53;;;-145.37;85.47
13486;BME280;6815;59.336;17.998;2023-01-19T11:49:05;77209.59;;;-145.37;85.33
13486;BME280;6815;59.336;17.998;2023-01-19T11:51:48;77215.63;;;-145.37;85.64
13486;BME280;6815;59.336;17.998;2023-01-19T11:54:22;77217.63;;;-145.37;85.44
13486;BME280;6815;59.336;17.998;2023-01-19T11:56:50;77211.59;;;-145.37;85.12
13486;BME280;6815;59.336;17.998;2023-01-19T11:59:18;77215.63;;;-145.37;85.03
13486;BME280;6815;59.336;17.998;2023-01-19T12:01:50;77223.69;;;-145.37;85.29
13486;BME280;6815;59.336;17.998;2023-01-19T12:04:25;77221.66;;;-145.37;85.19
13486;BME280;6815;59.336;17.998;2023-01-19T12:06:54;77215.63;;;-145.37;85.15
13486;BME280;6815;59.336;17.998;2023-01-19T12:09:23;77219.66;;;-145.37;85.07
13486;BME280;6815;59.336;17.998;2023-01-19T12:12:03;77223.69;;;-145.37;84.89
13486;BME280;6815;59.336;17.998;2023-01-19T12:14:37;77219.66;;;-145.37;84.77
13486;BME280;6815;59.336;17.998;2023-01-19T12:17:12;77205.56;;;-145.37;84.14
13486;BME280;6815;59.336;17.998;2023-01-19T12:19:52;77219.66;;;-145.37;84.18
13486;BME280;6815;59.336;17.998;2023-01-19T12:22:19;77215.63;;;-145.37;84.03
13486;BME280;6815;59.336;17.998;2023-01-19T12:25:04;77219.66;;;-145.37;84.25
13486;BME280;6815;59.336;17.998;2023-01-19T12:27:42;77221.66;;;-145.37;83.76
13486;BME280;6815;59.336;17.998;2023-01-19T12:30:28;77221.66;;;-145.37;84.14
13486;BME280;6815;59.336;17.998;2023-01-19T12:33:20;77225.69;;;-145.37;84.42
13486;BME280;6815;59.336;17.998;2023-01-19T12:41:32;77193.50;;;-145.37;83.23
13486;BME280;6815;59.336;17.998;2023-01-19T12:49:24;77201.56;;;-145.37;83.25
13486;BME280;6815;59.336;17.998;2023-01-19T12:51:53;77209.59;;;-145.37;82.83
13486;BME280;6815;59.336;17.998;2023-01-19T12:54:27;77209.59;;;-145.37;82.80
13486;BME280;6815;59.336;17.998;2023-01-19T12:56:57;77219.66;;;-145.37;83.00
13486;BME280;6815;59.336;17.998;2023-01-19T12:59:25;77227.69;;;-145.37;83.25
13486;BME280;6815;59.336;17.998;2023-01-19T13:13:23;77223.69;;;-145.37;82.97
13486;BME280;6815;59.336;17.998;2023-01-19T13:15:50;77229.72;;;-145.37;82.96
13486;BME280;6815;59.336;17.998;2023-01-19T13:18:17;77229.72;;;-145.37;82.47
13486;BME280;6815;59.336;17.998;2023-01-19T13:20:54;77245.78;;;-145.37;82.17
13486;BME280;6815;59.336;17.998;2023-01-19T13:26:19;77245.78;;;-145.37;82.12
13486;BME280;6815;59.336;17.998;2023-01-19T13:28:51;77245.78;;;-145.37;81.65
13486;BME280;6815;59.336;17.998;2023-01-19T13:31:19;77245.78;;;-145.37;81.57
13486;BME280;6815;59.336;17.998;2023-01-19T13:33:57;77239.75;;;-145.37;80.94
13486;BME280;6815;59.336;17.998;2023-01-19T13:36:29;77251.81;;;-145.37;81.12
13486;BME280;6815;59.336;17.998;2023-01-19T13:38:57;77261.88;;;-145.37;81.56
13486;BME280;6815;59.336;17.998;2023-01-19T13:41:26;77257.84;;;-145.37;81.62
13486;BME280;6815;59.336;17.998;2023-01-19T13:44:17;77251.81;;;-145.37;81.08